createdAt,value
2023-05-06T00:00:16.696Z,16.00
2023-05-06T00:04:18.119Z,15.60
2023-05-06T00:08:20.000Z,14.90
2023-05-06T00:12:21.106Z,15.30
2023-05-06T00:16:22.809Z,15.50
2023-05-06T00:20:24.135Z,15.90
2023-05-06T00:24:25.311Z,15.90
2023-05-06T00:28:26.394Z,15.80
2023-05-06T00:32:27.421Z,15.90
2023-05-06T00:36:28.439Z,15.70
2023-05-06T00:40:29.536Z,15.50
2023-05-06T00:44:31.446Z,15.70
2023-05-06T00:48:32.546Z,16.20
2023-05-06T00:52:33.734Z,15.60
2023-05-06T00:56:35.431Z,16.30
2023-05-06T01:00:37.018Z,16.60
2023-05-06T01:04:38.186Z,16.70
2023-05-06T01:08:45.607Z,16.70
2023-05-06T01:13:11.197Z,16.50
2023-05-06T01:17:14.485Z,16.10
2023-05-06T01:21:18.211Z,16.00
2023-05-06T01:25:22.877Z,15.20
2023-05-06T01:29:23.965Z,15.30
2023-05-06T01:33:41.037Z,16.00
2023-05-06T01:38:00.923Z,15.90
2023-05-06T01:42:03.113Z,15.90
2023-05-06T01:46:06.474Z,15.80
2023-05-06T01:50:08.623Z,15.70
2023-05-06T01:54:09.791Z,15.20
2023-05-06T01:58:11.012Z,15.40
2023-05-06T02:02:11.930Z,15.00
2023-05-06T02:06:12.878Z,14.30
2023-05-06T02:10:13.817Z,14.30
2023-05-06T02:14:14.908Z,14.70
2023-05-06T02:18:15.853Z,14.70
2023-05-06T02:22:16.983Z,14.10
2023-05-06T02:26:18.115Z,14.30
2023-05-06T02:30:19.372Z,14.20
2023-05-06T02:34:20.848Z,14.80
2023-05-06T02:38:22.328Z,15.10
2023-05-06T02:42:23.524Z,15.10
2023-05-06T02:46:24.688Z,14.70
2023-05-06T02:50:26.088Z,14.70
2023-05-06T02:54:27.198Z,14.40
2023-05-06T02:58:28.793Z,14.50
2023-05-06T03:02:30.048Z,14.90
2023-05-06T03:06:31.163Z,14.70
2023-05-06T03:10:32.359Z,14.70
2023-05-06T03:14:33.481Z,14.60
2023-05-06T03:18:34.528Z,14.40
2023-05-06T03:22:35.740Z,13.90
2023-05-06T03:26:37.020Z,14.20
2023-05-06T03:30:38.368Z,14.50
2023-05-06T03:34:39.417Z,14.60
2023-05-06T03:38:41.144Z,14.70
2023-05-06T03:42:42.358Z,14.60
2023-05-06T03:46:43.465Z,14.50
2023-05-06T03:50:45.039Z,14.30
2023-05-06T03:54:46.137Z,14.20
2023-05-06T03:58:47.130Z,13.80
2023-05-06T04:02:48.378Z,14.10
2023-05-06T04:06:49.350Z,14.10
2023-05-06T04:10:50.578Z,14.00
2023-05-06T04:14:51.694Z,14.00
2023-05-06T04:18:52.707Z,13.90
2023-05-06T04:22:53.679Z,13.90
2023-05-06T04:26:55.477Z,13.90
2023-05-06T04:30:56.482Z,13.80
2023-05-06T04:34:57.605Z,13.70
2023-05-06T04:38:58.748Z,14.00
2023-05-06T04:42:59.735Z,14.00
2023-05-06T04:47:00.998Z,14.00
2023-05-06T04:51:04.383Z,14.20
2023-05-06T04:55:05.701Z,14.20
2023-05-06T04:59:07.114Z,14.70
2023-05-06T05:03:08.301Z,14.80
2023-05-06T05:07:09.453Z,14.80
2023-05-06T05:11:10.459Z,15.10
2023-05-06T05:15:12.206Z,15.30
2023-05-06T05:19:13.332Z,15.70
2023-05-06T05:23:14.471Z,15.90
2023-05-06T05:27:15.574Z,16.30
2023-05-06T05:31:16.620Z,16.60
2023-05-06T05:35:17.613Z,16.90
2023-05-06T05:39:18.721Z,17.40
2023-05-06T05:43:21.349Z,17.90
2023-05-06T05:47:22.527Z,18.70
2023-05-06T05:51:23.810Z,19.30
2023-05-06T05:55:25.771Z,19.60
2023-05-06T05:59:28.253Z,20.00
2023-05-06T06:03:29.447Z,20.20
2023-05-06T06:07:30.838Z,20.90
2023-05-06T06:11:31.971Z,21.20
2023-05-06T06:15:33.037Z,19.20
2023-05-06T06:19:34.182Z,18.60
2023-05-06T06:23:35.180Z,20.10
2023-05-06T06:27:36.296Z,20.00
2023-05-06T06:31:39.715Z,18.10
2023-05-06T06:35:40.273Z,19.10
2023-05-06T06:39:41.231Z,19.00
2023-05-06T06:43:42.353Z,19.90
2023-05-06T06:47:43.676Z,21.00
2023-05-06T06:51:44.621Z,21.80
2023-05-06T06:55:45.601Z,20.80
2023-05-06T06:59:47.014Z,21.90
2023-05-06T07:03:47.961Z,21.50
2023-05-06T07:07:49.046Z,22.30
2023-05-06T07:11:50.000Z,22.70
2023-05-06T07:15:51.105Z,20.90
2023-05-06T07:19:52.066Z,20.20
2023-05-06T07:23:53.367Z,22.60
2023-05-06T07:27:54.461Z,23.40
2023-05-06T07:31:55.648Z,21.00
2023-05-06T07:35:56.610Z,19.40
2023-05-06T07:39:58.030Z,21.80
2023-05-06T07:43:58.996Z,23.10
2023-05-06T07:48:00.116Z,22.80
2023-05-06T07:52:02.938Z,23.10
2023-05-06T07:56:04.158Z,22.30
2023-05-06T08:00:06.221Z,22.00
2023-05-06T08:04:07.227Z,22.30
2023-05-06T08:08:08.276Z,22.50
2023-05-06T08:12:09.521Z,19.60
2023-05-06T08:16:10.763Z,19.90
2023-05-06T08:20:13.068Z,21.70
2023-05-06T08:24:14.556Z,21.20
2023-05-06T08:28:15.630Z,22.60
2023-05-06T08:32:16.715Z,22.50
2023-05-06T08:36:17.787Z,22.60
2023-05-06T08:40:21.348Z,23.60
2023-05-06T08:44:24.221Z,23.30
2023-05-06T08:48:25.263Z,24.80
2023-05-06T08:52:27.161Z,23.30
2023-05-06T08:56:30.407Z,22.00
2023-05-06T09:00:32.284Z,23.80
2023-05-06T09:04:33.744Z,22.90
2023-05-06T09:08:35.504Z,22.90
2023-05-06T09:12:37.367Z,23.00
2023-05-06T09:16:40.913Z,22.20
2023-05-06T09:20:44.479Z,23.20
2023-05-06T09:24:45.622Z,23.00
2023-05-06T09:28:46.832Z,22.20
2023-05-06T09:32:49.240Z,22.70
2023-05-06T09:36:52.047Z,22.70
2023-05-06T09:40:53.295Z,23.10
2023-05-06T09:44:56.243Z,23.10
2023-05-06T09:48:58.008Z,23.20
2023-05-06T09:53:00.228Z,21.20
2023-05-06T09:57:03.145Z,22.40
2023-05-06T10:01:06.476Z,23.60
2023-05-06T10:05:09.895Z,23.50
2023-05-06T10:09:12.230Z,21.60
2023-05-06T10:13:15.510Z,23.00
2023-05-06T10:17:18.210Z,23.60
2023-05-06T10:21:21.576Z,23.40
2023-05-06T10:25:35.770Z,23.60
2023-05-06T10:29:37.302Z,23.40
2023-05-06T10:33:45.085Z,23.60
2023-05-06T10:37:48.684Z,23.60
2023-05-06T10:41:49.979Z,24.00
2023-05-06T10:46:15.362Z,24.30
2023-05-06T10:50:21.446Z,24.50
2023-05-06T10:54:23.526Z,24.50
2023-05-06T10:58:24.662Z,24.70
2023-05-06T11:02:29.675Z,24.50
2023-05-06T11:06:40.669Z,24.20
2023-05-06T11:10:41.784Z,25.20
2023-05-06T11:14:42.922Z,24.10
2023-05-06T11:18:44.378Z,23.60
